Welcome to Northern Hawkes Bay. New Zealand.
PWS Header
      nz Flag



Hit Counter


W3C Valid W3C Valid logo


    Wairoa

Select any of the Stations below to visit their websites.










Historic Data from Weather Underground
Select the location of interest below. Wairoa is the default. Please have patience, this Data is slow to load in.
Northern Hawkes Bay Historical Data
Daily Summary for December 5, 2017 Units:  Metric    English   Both
« Previous Day
Next Day »
Daily Weekly Monthly Yearly Custom
  High: Low: Average:
Temperature: 31.4 °C 16.5 °C 23.2 °C
Dew Point: 18.6 °C 14.2 °C 16.3 °C
Humidity: 92% 37% 68%
Wind Speed: 12.2km/h 0.0km/h 2.5km/h
Wind Gust: 18.3km/h - -
Wind- - SSW
Pressure: 1016.5 hPa 1011.1 hPa -
Precipitation: 0.0 mm    
Historical Graphs
 
 
Tabular Data for December 5, 2017
Time Temperature Dew Point Pressure Wind Wind Speed Wind Gust Humidity Rainfall Rate (Hourly) solar
00:02 17.7 °C 16.1 °C 1016.5 hPa Calm     90% 0.0 mm 0 W/m2
00:07 17.7 °C 16.1 °C 1016.5 hPa Calm     90% 0.0 mm 0 W/m2
00:12 17.8 °C 16.2 °C 1016.5 hPa Calm   1.1 km/h 90% 0.0 mm 0 W/m2
00:17 17.9 °C 16.2 °C 1016.5 hPa Calm   1.1 km/h 90% 0.0 mm 0 W/m2
00:22 18.0 °C 16.3 °C 1016.5 hPa Calm     90% 0.0 mm 0 W/m2
00:27 18.2 °C 16.6 °C 1016.1 hPa Calm   1.1 km/h 90% 0.0 mm 0 W/m2
00:32 18.2 °C 16.4 °C 1016.1 hPa Calm   1.1 km/h 89% 0.0 mm 0 W/m2
00:37 18.3 °C 16.3 °C 1016.1 hPa Calm     88% 0.0 mm 0 W/m2
00:42 18.3 °C 16.1 °C 1016.1 hPa NW 1.1 km/h 5.0 km/h 87% 0.0 mm 0 W/m2
00:47 18.3 °C 16.1 °C 1016.1 hPa Calm   5.0 km/h 87% 0.0 mm 0 W/m2
00:52 18.2 °C 16.0 °C 1016.1 hPa Calm   5.0 km/h 87% 0.0 mm 0 W/m2
00:57 18.2 °C 16.0 °C 1016.1 hPa Calm   5.0 km/h 87% 0.0 mm 0 W/m2
01:03 18.2 °C 16.0 °C 1016.1 hPa Calm   3.5 km/h 87% 0.0 mm 0 W/m2
01:08 18.2 °C 16.0 °C 1016.1 hPa NNW 1.1 km/h 3.5 km/h 87% 0.0 mm 0 W/m2
01:13 18.2 °C 16.0 °C 1016.1 hPa Calm   3.5 km/h 87% 0.0 mm 0 W/m2
01:18 18.2 °C 16.0 °C 1016.1 hPa Calm   2.6 km/h 87% 0.0 mm 0 W/m2
01:23 18.3 °C 16.1 °C 1016.1 hPa Calm   2.6 km/h 87% 0.0 mm 0 W/m2
01:28 18.3 °C 16.1 °C 1016.1 hPa Calm   2.6 km/h 87% 0.0 mm 0 W/m2
01:33 18.3 °C 16.1 °C 1016.1 hPa NW 1.1 km/h 3.5 km/h 87% 0.0 mm 0 W/m2
01:38 18.4 °C 16.2 °C 1016.1 hPa Calm   6.1 km/h 87% 0.0 mm 0 W/m2
01:43 18.4 °C 16.2 °C 1016.1 hPa NW 1.1 km/h 6.1 km/h 87% 0.0 mm 0 W/m2
01:48 18.4 °C 16.2 °C 1016.1 hPa Calm   6.1 km/h 87% 0.0 mm 0 W/m2
01:53 18.3 °C 16.1 °C 1015.8 hPa North 2.6 km/h 8.7 km/h 87% 0.0 mm 0 W/m2
01:58 18.4 °C 16.4 °C 1015.8 hPa North 1.1 km/h 8.7 km/h 88% 0.0 mm 0 W/m2
02:03 18.4 °C 16.4 °C 1015.8 hPa North 2.6 km/h 6.1 km/h 88% 0.0 mm 0 W/m2
02:08 18.4 °C 16.2 °C 1015.8 hPa Calm   6.1 km/h 87% 0.0 mm 0 W/m2
02:13 18.4 °C 16.2 °C 1015.8 hPa Calm   6.1 km/h 87% 0.0 mm 0 W/m2
02:18 18.3 °C 16.1 °C 1015.5 hPa North 1.1 km/h 6.1 km/h 87% 0.0 mm 0 W/m2
02:23 18.2 °C 16.2 °C 1015.8 hPa Calm   6.1 km/h 88% 0.0 mm 0 W/m2
02:28 18.2 °C 16.2 °C 1015.8 hPa NNW 1.1 km/h 5.0 km/h 88% 0.0 mm 0 W/m2
02:33 18.2 °C 16.2 °C 1015.8 hPa North 1.1 km/h 5.0 km/h 88% 0.0 mm 0 W/m2
02:38 18.3 °C 16.3 °C 1015.5 hPa Calm   7.2 km/h 88% 0.0 mm 0 W/m2
02:43 18.2 °C 16.2 °C 1015.8 hPa NNW 1.1 km/h 7.2 km/h 88% 0.0 mm 0 W/m2
02:48 18.2 °C 16.2 °C 1015.8 hPa North 3.5 km/h 6.1 km/h 88% 0.0 mm 0 W/m2
02:53 18.1 °C 16.1 °C 1015.5 hPa Calm   7.2 km/h 88% 0.0 mm 0 W/m2
02:58 18.1 °C 16.1 °C 1015.5 hPa NNW 1.1 km/h 7.2 km/h 88% 0.0 mm 0 W/m2
03:03 18.0 °C 16.0 °C 1015.5 hPa NNW 1.1 km/h 7.2 km/h 88% 0.0 mm 0 W/m2
03:08 17.8 °C 15.8 °C 1015.5 hPa NNW 1.1 km/h 7.2 km/h 88% 0.0 mm 0 W/m2
03:13 17.7 °C 15.9 °C 1015.5 hPa North 1.1 km/h 6.1 km/h 89% 0.0 mm 0 W/m2
03:18 17.6 °C 15.8 °C 1015.5 hPa Calm   6.1 km/h 89% 0.0 mm 0 W/m2
03:23 17.5 °C 15.7 °C 1015.1 hPa North 1.1 km/h 6.1 km/h 89% 0.0 mm 0 W/m2
03:28 17.5 °C 15.7 °C 1015.1 hPa North 3.5 km/h 6.1 km/h 89% 0.0 mm 0 W/m2
03:50 17.7 °C 15.5 °C 1015.1 hPa North 1.1 km/h 8.7 km/h 87% 0.0 mm 0 W/m2
03:55 17.7 °C 15.3 °C 1014.8 hPa North 2.6 km/h 8.7 km/h 86% 0.0 mm 0 W/m2
04:00 17.7 °C 15.3 °C 1015.1 hPa North 2.6 km/h 8.7 km/h 86% 0.0 mm 0 W/m2
04:06 17.7 °C 15.2 °C 1014.8 hPa Calm   8.7 km/h 85% 0.0 mm 0 W/m2
04:11 17.6 °C 15.1 °C 1014.8 hPa NNW 1.1 km/h 7.2 km/h 85% 0.0 mm 0 W/m2
04:16 17.5 °C 14.9 °C 1014.8 hPa North 1.1 km/h 7.2 km/h 85% 0.0 mm 0 W/m2
04:21 17.4 °C 14.9 °C 1014.8 hPa NNW 1.1 km/h 6.1 km/h 85% 0.0 mm 0 W/m2
04:26 17.3 °C 14.9 °C 1014.8 hPa NNW 1.1 km/h 8.7 km/h 86% 0.0 mm 0 W/m2
04:31 17.2 °C 14.7 °C 1014.8 hPa Calm   8.7 km/h 85% 0.0 mm 0 W/m2
04:36 17.1 °C 14.6 °C 1014.8 hPa NNW 1.1 km/h 6.1 km/h 85% 0.0 mm 0 W/m2
04:41 17.0 °C 14.4 °C 1014.8 hPa NNW 1.1 km/h 8.7 km/h 85% 0.0 mm 0 W/m2
04:51 17.0 °C 14.4 °C 1014.8 hPa North 1.1 km/h 6.1 km/h 85% 0.0 mm 0 W/m2
04:56 16.9 °C 14.6 °C 1014.8 hPa NNW 1.1 km/h 6.1 km/h 86% 0.0 mm 0 W/m2
05:01 16.7 °C 14.3 °C 1014.8 hPa North 2.6 km/h 5.0 km/h 86% 0.0 mm 0 W/m2
05:06 16.7 °C 14.2 °C 1014.8 hPa North 5.0 km/h 8.7 km/h 85% 0.0 mm 0 W/m2
05:11 16.7 °C 14.2 °C 1014.8 hPa NNW 3.5 km/h 8.7 km/h 85% 0.0 mm 0 W/m2
05:16 16.7 °C 14.3 °C 1014.8 hPa NNW 1.1 km/h 8.7 km/h 86% 0.0 mm 0 W/m2
05:26 16.7 °C 14.3 °C 1014.8 hPa NNW 2.6 km/h 11.1 km/h 86% 0.0 mm 0 W/m2
05:31 16.7 °C 14.3 °C 1014.8 hPa NNW 1.1 km/h 9.7 km/h 86% 0.0 mm 0 W/m2
05:36 16.6 °C 14.3 °C 1014.8 hPa North 2.6 km/h 7.2 km/h 86% 0.0 mm 0 W/m2
05:41 16.6 °C 14.3 °C 1014.8 hPa North 1.1 km/h 7.2 km/h 86% 0.0 mm 1 W/m2
05:46 16.5 °C 14.2 °C 1015.1 hPa North 1.1 km/h 6.1 km/h 86% 0.0 mm 4 W/m2
05:51 16.6 °C 14.3 °C 1014.8 hPa Calm   6.1 km/h 86% 0.0 mm 7 W/m2
05:56 16.7 °C 14.2 °C 1014.8 hPa NNW 5.0 km/h 9.7 km/h 85% 0.0 mm 12 W/m2
06:01 16.7 °C 14.2 °C 1014.8 hPa NNW 3.5 km/h 9.7 km/h 85% 0.0 mm 18 W/m2
06:06 16.7 °C 14.2 °C 1014.8 hPa NNW 3.5 km/h 11.1 km/h 85% 0.0 mm 22 W/m2
06:11 16.9 °C 14.4 °C 1014.8 hPa NNW 3.5 km/h 11.1 km/h 85% 0.0 mm 28 W/m2
06:16 16.9 °C 14.4 °C 1015.1 hPa NNW 2.6 km/h 8.7 km/h 85% 0.0 mm 36 W/m2
06:21 16.9 °C 14.6 °C 1014.8 hPa NNW 2.6 km/h 8.7 km/h 86% 0.0 mm 44 W/m2
06:26 17.2 °C 14.7 °C 1014.8 hPa North 2.6 km/h 9.7 km/h 85% 0.0 mm 57 W/m2
06:31 17.6 °C 14.9 °C 1014.8 hPa North 2.6 km/h 9.7 km/h 84% 0.0 mm 66 W/m2
06:36 17.9 °C 14.8 °C 1015.1 hPa North 2.6 km/h 9.7 km/h 82% 0.0 mm 75 W/m2
06:41 18.4 °C 15.1 °C 1015.1 hPa North 2.6 km/h 8.7 km/h 81% 0.0 mm 84 W/m2
06:46 18.8 °C 15.1 °C 1015.1 hPa Calm   7.2 km/h 79% 0.0 mm 92 W/m2
06:51 19.1 °C 14.8 °C 1015.1 hPa North 2.6 km/h 7.2 km/h 76% 0.0 mm 101 W/m2
06:56 19.2 °C 14.9 °C 1015.1 hPa North 5.0 km/h 7.2 km/h 76% 0.0 mm 110 W/m2
07:01 19.5 °C 14.9 °C 1015.1 hPa North 2.6 km/h 8.7 km/h 75% 0.0 mm 119 W/m2
07:06 19.7 °C 15.2 °C 1015.1 hPa North 3.5 km/h 9.7 km/h 75% 0.0 mm 129 W/m2
07:11 19.8 °C 15.1 °C 1015.1 hPa NNE 5.0 km/h 11.1 km/h 74% 0.0 mm 138 W/m2
07:16 19.9 °C 15.2 °C 1015.1 hPa North 3.5 km/h 12.2 km/h 74% 0.0 mm 147 W/m2
07:21 20.1 °C 15.1 °C 1015.1 hPa Calm   12.2 km/h 73% 0.0 mm 158 W/m2
07:26 20.3 °C 15.1 °C 1015.1 hPa NNW 2.6 km/h 9.7 km/h 72% 0.0 mm 170 W/m2
07:31 20.5 °C 15.1 °C 1014.8 hPa North 2.6 km/h 9.7 km/h 71% 0.0 mm 181 W/m2
07:37 20.8 °C 15.4 °C 1015.1 hPa North 1.1 km/h 9.7 km/h 71% 0.0 mm 197 W/m2
07:42 21.0 °C 15.1 °C 1015.1 hPa NNW 6.1 km/h 11.1 km/h 69% 0.0 mm 208 W/m2
07:47 21.0 °C 15.1 °C 1015.1 hPa NNW 1.1 km/h 11.1 km/h 69% 0.0 mm 219 W/m2
07:52 21.5 °C 15.3 °C 1015.1 hPa North 5.0 km/h 9.7 km/h 68% 0.0 mm 232 W/m2
07:57 21.4 °C 14.8 °C 1015.1 hPa North 2.6 km/h 12.2 km/h 66% 0.0 mm 242 W/m2
08:02 21.6 °C 15.0 °C 1015.1 hPa North 2.6 km/h 12.2 km/h 66% 0.0 mm 257 W/m2
08:07 21.8 °C 15.2 °C 1015.1 hPa North 6.1 km/h 13.4 km/h 66% 0.0 mm 271 W/m2
08:12 21.9 °C 15.3 °C 1015.1 hPa North 6.1 km/h 13.4 km/h 66% 0.0 mm 282 W/m2
08:17 22.0 °C 15.1 °C 1015.1 hPa North 3.5 km/h 12.2 km/h 65% 0.0 mm 295 W/m2
08:22 22.4 °C 15.3 °C 1015.1 hPa North 7.2 km/h 11.1 km/h 64% 0.0 mm 311 W/m2
08:27 22.9 °C 15.7 °C 1015.1 hPa North 6.1 km/h 11.1 km/h 64% 0.0 mm 324 W/m2
08:32 22.9 °C 15.3 °C 1014.8 hPa NNW 5.0 km/h 12.2 km/h 62% 0.0 mm 338 W/m2
08:37 22.9 °C 15.5 °C 1015.1 hPa NNW 3.5 km/h 12.2 km/h 63% 0.0 mm 354 W/m2
08:42 23.2 °C 16.3 °C 1015.1 hPa NNW 5.0 km/h 12.2 km/h 65% 0.0 mm 368 W/m2
08:47 23.4 °C 16.0 °C 1015.5 hPa North 3.5 km/h 12.2 km/h 63% 0.0 mm 383 W/m2
08:52 23.6 °C 15.9 °C 1015.1 hPa North 1.1 km/h 12.2 km/h 62% 0.0 mm 397 W/m2
08:57 24.0 °C 16.3 °C 1015.1 hPa North 5.0 km/h 11.1 km/h 62% 0.0 mm 412 W/m2
09:02 24.4 °C 16.2 °C 1015.1 hPa NNE 5.0 km/h 9.7 km/h 60% 0.0 mm 428 W/m2
09:07 24.8 °C 16.6 °C 1015.1 hPa NNE 2.6 km/h 8.7 km/h 60% 0.0 mm 446 W/m2
09:12 25.2 °C 16.4 °C 1014.8 hPa NNE 3.5 km/h 11.1 km/h 58% 0.0 mm 464 W/m2
09:17 25.0 °C 16.2 °C 1014.8 hPa North 3.5 km/h 12.2 km/h 58% 0.0 mm 482 W/m2
09:22 24.8 °C 16.0 °C 1014.8 hPa North 7.2 km/h 12.2 km/h 58% 0.0 mm 499 W/m2
09:27 25.3 °C 16.4 °C 1014.8 hPa NNE 1.1 km/h 11.1 km/h 58% 0.0 mm 515 W/m2
09:32 25.7 °C 16.6 °C 1014.8 hPa NNE 6.1 km/h 9.7 km/h 57% 0.0 mm 534 W/m2
09:37 25.5 °C 16.4 °C 1014.8 hPa NNW 7.2 km/h 12.2 km/h 57% 0.0 mm 553 W/m2
09:42 25.4 °C 16.6 °C 1014.8 hPa NNW 2.6 km/h 12.2 km/h 58% 0.0 mm 569 W/m2
09:47 25.4 °C 16.0 °C 1014.8 hPa North 6.1 km/h 12.2 km/h 56% 0.0 mm 592 W/m2
09:57 25.6 °C 16.2 °C 1014.8 hPa NNW 1.1 km/h 11.1 km/h 56% 0.0 mm 638 W/m2
10:02 25.8 °C 16.9 °C 1014.4 hPa Calm   9.7 km/h 58% 0.0 mm 661 W/m2
10:07 26.7 °C 16.7 °C 1014.8 hPa Calm   7.2 km/h 54% 0.0 mm 680 W/m2
10:12 26.7 °C 16.3 °C 1014.4 hPa Calm   7.2 km/h 53% 0.0 mm 696 W/m2
10:17 27.6 °C 16.9 °C 1014.8 hPa NE 1.1 km/h 8.7 km/h 52% 0.0 mm 710 W/m2
10:22 27.3 °C 16.0 °C 1014.4 hPa Calm   8.7 km/h 50% 0.0 mm 723 W/m2
10:27 27.1 °C 16.1 °C 1014.8 hPa Calm   8.7 km/h 51% 0.0 mm 736 W/m2
10:32 27.7 °C 17.3 °C 1014.8 hPa Calm   8.7 km/h 53% 0.0 mm 752 W/m2
10:37 28.0 °C 17.8 °C 1014.4 hPa Calm   7.2 km/h 54% 0.0 mm 759 W/m2
10:42 27.5 °C 17.4 °C 1014.4 hPa Calm   7.2 km/h 54% 0.0 mm 768 W/m2
10:47 27.0 °C 16.9 °C 1014.4 hPa SSE 5.0 km/h 11.1 km/h 54% 0.0 mm 774 W/m2
10:52 26.5 °C 17.3 °C 1014.4 hPa SSE 2.6 km/h 11.1 km/h 57% 0.0 mm 777 W/m2
10:57 26.3 °C 17.1 °C 1014.1 hPa SE 1.1 km/h 9.7 km/h 57% 0.0 mm 784 W/m2
11:02 26.5 °C 17.3 °C 1014.1 hPa SSE 3.5 km/h 9.7 km/h 57% 0.0 mm 793 W/m2
11:07 26.6 °C 17.4 °C 1014.1 hPa SSE 3.5 km/h 9.7 km/h 57% 0.0 mm 796 W/m2
11:12 26.5 °C 16.7 °C 1014.1 hPa SE 7.2 km/h 12.2 km/h 55% 0.0 mm 806 W/m2
11:17 26.1 °C 16.9 °C 1014.1 hPa SSE 2.6 km/h 12.2 km/h 57% 0.0 mm 809 W/m2
11:22 25.9 °C 17.6 °C 1014.1 hPa SSE 1.1 km/h 12.2 km/h 60% 0.0 mm 812 W/m2
11:27 26.3 °C 17.1 °C 1014.1 hPa South 8.7 km/h 11.1 km/h 57% 0.0 mm 819 W/m2
11:37 26.3 °C 17.4 °C 1013.8 hPa South 5.0 km/h 13.4 km/h 58% 0.0 mm 828 W/m2
11:42 26.6 °C 17.1 °C 1013.8 hPa South 3.5 km/h 11.1 km/h 56% 0.0 mm 832 W/m2
11:47 26.6 °C 16.8 °C 1013.8 hPa South 5.0 km/h 11.1 km/h 55% 0.0 mm 840 W/m2
11:52 26.4 °C 16.9 °C 1013.8 hPa South 5.0 km/h 11.1 km/h 56% 0.0 mm 841 W/m2
11:57 26.5 °C 16.7 °C 1013.8 hPa SSE 6.1 km/h 12.2 km/h 55% 0.0 mm 844 W/m2
12:02 26.6 °C 16.6 °C 1013.8 hPa SSE 5.0 km/h 12.2 km/h 54% 0.0 mm 845 W/m2
12:07 26.6 °C 16.6 °C 1013.8 hPa SSE 3.5 km/h 12.2 km/h 54% 0.0 mm 846 W/m2
12:12 27.0 °C 16.9 °C 1013.8 hPa SSE 3.5 km/h 12.2 km/h 54% 0.0 mm 850 W/m2
12:17 27.5 °C 17.1 °C 1013.8 hPa SE 7.2 km/h 14.8 km/h 53% 0.0 mm 856 W/m2
12:22 27.6 °C 16.9 °C 1013.8 hPa SE 3.5 km/h 14.8 km/h 52% 0.0 mm 854 W/m2
12:27 27.2 °C 16.8 °C 1013.8 hPa SSE 6.1 km/h 13.4 km/h 53% 0.0 mm 853 W/m2
12:32 27.0 °C 17.2 °C 1013.8 hPa SSE 5.0 km/h 13.4 km/h 55% 0.0 mm 851 W/m2
12:37 27.0 °C 17.2 °C 1013.8 hPa SSE 2.6 km/h 12.2 km/h 55% 0.0 mm 852 W/m2
12:42 27.2 °C 16.8 °C 1013.4 hPa SSE 6.1 km/h 12.2 km/h 53% 0.0 mm 851 W/m2
12:47 27.1 °C 17.0 °C 1013.4 hPa SSE 3.5 km/h 11.1 km/h 54% 0.0 mm 849 W/m2
12:52 27.0 °C 16.9 °C 1013.4 hPa SSE 3.5 km/h 13.4 km/h 54% 0.0 mm 844 W/m2
12:57 27.1 °C 17.3 °C 1013.4 hPa Calm   13.4 km/h 55% 0.0 mm 840 W/m2
13:02 27.4 °C 17.3 °C 1013.4 hPa SE 5.0 km/h 12.2 km/h 54% 0.0 mm 839 W/m2
13:07 27.6 °C 17.2 °C 1013.4 hPa SE 1.1 km/h 12.2 km/h 53% 0.0 mm 838 W/m2
13:12 27.9 °C 17.2 °C 1013.4 hPa SSE 5.0 km/h 9.7 km/h 52% 0.0 mm 834 W/m2
13:33 28.4 °C 16.7 °C 1013.4 hPa SE 1.1 km/h 12.2 km/h 49% 0.0 mm 822 W/m2
13:38 28.4 °C 16.7 °C 1013.1 hPa SE 3.5 km/h 12.2 km/h 49% 0.0 mm 816 W/m2
13:43 28.5 °C 16.1 °C 1013.1 hPa SE 2.6 km/h 14.8 km/h 47% 0.0 mm 812 W/m2
13:48 28.4 °C 16.1 °C 1013.1 hPa SE 1.1 km/h 14.8 km/h 47% 0.0 mm 804 W/m2
13:53 28.7 °C 15.9 °C 1013.1 hPa ESE 5.0 km/h 12.2 km/h 46% 0.0 mm 798 W/m2
13:58 28.4 °C 15.3 °C 1012.8 hPa ESE 1.1 km/h 13.4 km/h 45% 0.0 mm 792 W/m2
14:03 28.9 °C 16.2 °C 1012.8 hPa ESE 3.5 km/h 13.4 km/h 46% 0.0 mm 788 W/m2
14:08 28.9 °C 15.8 °C 1013.1 hPa ESE 6.1 km/h 15.8 km/h 45% 0.0 mm 782 W/m2
14:13 28.3 °C 15.3 °C 1013.1 hPa SE 2.6 km/h 15.8 km/h 45% 0.0 mm 769 W/m2
14:18 28.6 °C 15.9 °C 1012.8 hPa SE 3.5 km/h 13.4 km/h 46% 0.0 mm 766 W/m2
14:23 28.5 °C 15.4 °C 1013.1 hPa ESE 5.0 km/h 15.8 km/h 45% 0.0 mm 758 W/m2
14:28 28.5 °C 15.4 °C 1012.8 hPa ESE 1.1 km/h 15.8 km/h 45% 0.0 mm 750 W/m2
14:33 28.7 °C 15.6 °C 1012.8 hPa ESE 6.1 km/h 13.4 km/h 45% 0.0 mm 743 W/m2
14:38 28.3 °C 14.9 °C 1012.8 hPa ESE 5.0 km/h 14.8 km/h 44% 0.0 mm 736 W/m2
14:43 28.6 °C 14.8 °C 1012.8 hPa ESE 6.1 km/h 14.8 km/h 43% 0.0 mm 728 W/m2
14:48 28.8 °C 14.6 °C 1012.8 hPa SE 7.2 km/h 13.4 km/h 42% 0.0 mm 724 W/m2
14:53 28.9 °C 15.1 °C 1012.8 hPa SE 2.6 km/h 13.4 km/h 43% 0.0 mm 716 W/m2
14:58 29.3 °C 15.8 °C 1012.4 hPa ESE 5.0 km/h 13.4 km/h 44% 0.0 mm 711 W/m2
15:03 29.4 °C 15.6 °C 1012.4 hPa ESE 2.6 km/h 15.8 km/h 43% 0.0 mm 704 W/m2
15:08 29.6 °C 16.1 °C 1012.4 hPa SE 6.1 km/h 15.8 km/h 44% 0.0 mm 696 W/m2
15:13 29.6 °C 15.3 °C 1012.4 hPa SE 1.1 km/h 11.1 km/h 42% 0.0 mm 686 W/m2
15:18 30.0 °C 16.1 °C 1012.4 hPa ESE 7.2 km/h 14.8 km/h 43% 0.0 mm 674 W/m2
15:19 29.6 °C 16.1 °C 1012.4 hPa East 5.0 km/h 14.8 km/h 44% 0.0 mm 673 W/m2
15:24 29.6 °C 16.1 °C 1012.4 hPa ESE 6.1 km/h 14.8 km/h 44% 0.0 mm 663 W/m2
15:29 29.4 °C 15.9 °C 1012.4 hPa ESE 3.5 km/h 13.4 km/h 44% 0.0 mm 648 W/m2
15:34 29.4 °C 15.9 °C 1012.1 hPa ESE 12.2 km/h 17.2 km/h 44% 0.0 mm 640 W/m2
15:39 29.1 °C 16.0 °C 1012.1 hPa ESE 9.7 km/h 17.2 km/h 45% 0.0 mm 626 W/m2
15:44 29.2 °C 16.4 °C 1012.1 hPa East 5.0 km/h 14.8 km/h 46% 0.0 mm 614 W/m2
15:49 29.4 °C 16.6 °C 1012.1 hPa ESE 3.5 km/h 14.8 km/h 46% 0.0 mm 607 W/m2
15:54 29.6 °C 17.1 °C 1012.1 hPa ESE 3.5 km/h 13.4 km/h 47% 0.0 mm 597 W/m2
16:05 29.6 °C 16.8 °C 1012.1 hPa ESE 1.1 km/h 13.4 km/h 46% 0.0 mm 573 W/m2
16:10 30.0 °C 16.8 °C 1011.7 hPa East 3.5 km/h 13.4 km/h 45% 0.0 mm 561 W/m2
16:16 30.0 °C 16.1 °C 1011.7 hPa East 8.7 km/h 15.8 km/h 43% 0.0 mm 548 W/m2
16:20 29.6 °C 16.4 °C 1011.7 hPa ESE 7.2 km/h 15.8 km/h 45% 0.0 mm 536 W/m2
16:26 29.6 °C 16.1 °C 1011.7 hPa ESE 2.6 km/h 18.3 km/h 44% 0.0 mm 518 W/m2
16:31 30.4 °C 16.1 °C 1011.7 hPa ESE 3.5 km/h 18.3 km/h 42% 0.0 mm 511 W/m2
16:36 30.7 °C 15.2 °C 1011.7 hPa ESE 2.6 km/h 12.2 km/h 39% 0.0 mm 500 W/m2
16:41 30.6 °C 15.5 °C 1011.7 hPa SE 5.0 km/h 12.2 km/h 40% 0.0 mm 488 W/m2
16:46 30.6 °C 15.5 °C 1011.7 hPa SE 6.1 km/h 12.2 km/h 40% 0.0 mm 474 W/m2
16:51 31.3 °C 15.7 °C 1011.7 hPa Calm   12.2 km/h 39% 0.0 mm 462 W/m2
16:56 31.4 °C 15.0 °C 1011.7 hPa East 6.1 km/h 11.1 km/h 37% 0.0 mm 448 W/m2
17:01 31.3 °C 15.3 °C 1011.4 hPa ESE 3.5 km/h 11.1 km/h 38% 0.0 mm 436 W/m2
17:06 30.9 °C 15.4 °C 1011.4 hPa ESE 2.6 km/h 13.4 km/h 39% 0.0 mm 419 W/m2
17:11 30.8 °C 15.7 °C 1011.4 hPa ESE 3.5 km/h 13.4 km/h 40% 0.0 mm 405 W/m2
17:16 31.1 °C 15.6 °C 1011.4 hPa ESE 1.1 km/h 11.1 km/h 39% 0.0 mm 388 W/m2
17:21 31.1 °C 15.9 °C 1011.4 hPa SE 2.6 km/h 8.7 km/h 40% 0.0 mm 375 W/m2
17:26 31.2 °C 15.6 °C 1011.1 hPa SE 2.6 km/h 11.1 km/h 39% 0.0 mm 365 W/m2
17:31 31.1 °C 15.6 °C 1011.1 hPa SE 8.7 km/h 17.2 km/h 39% 0.0 mm 351 W/m2
17:36 30.2 °C 16.3 °C 1011.1 hPa SE 6.1 km/h 17.2 km/h 43% 0.0 mm 338 W/m2
17:41 30.1 °C 16.6 °C 1011.1 hPa SE 3.5 km/h 17.2 km/h 44% 0.0 mm 322 W/m2
17:46 30.4 °C 17.2 °C 1011.4 hPa SE 1.1 km/h 13.4 km/h 45% 0.0 mm 304 W/m2
17:51 30.1 °C 16.9 °C 1011.4 hPa SE 2.6 km/h 13.4 km/h 45% 0.0 mm 294 W/m2
17:56 30.0 °C 16.8 °C 1011.1 hPa SE 5.0 km/h 13.4 km/h 45% 0.0 mm 248 W/m2
18:01 29.5 °C 16.7 °C 1011.4 hPa SE 6.1 km/h 12.2 km/h 46% 0.0 mm 173 W/m2
18:06 28.5 °C 16.1 °C 1011.4 hPa SE 3.5 km/h 13.4 km/h 47% 0.0 mm 95 W/m2
18:11 27.6 °C 15.9 °C 1011.4 hPa SE 1.1 km/h 13.4 km/h 49% 0.0 mm 97 W/m2
18:16 27.2 °C 16.2 °C 1011.4 hPa SE 1.1 km/h 12.2 km/h 51% 0.0 mm 104 W/m2
18:21 27.1 °C 16.1 °C 1011.4 hPa Calm   12.2 km/h 51% 0.0 mm 126 W/m2
18:26 27.7 °C 17.0 °C 1011.7 hPa Calm   7.2 km/h 52% 0.0 mm 152 W/m2
18:31 28.6 °C 16.9 °C 1011.4 hPa ESE 5.0 km/h 9.7 km/h 49% 0.0 mm 199 W/m2
18:36 28.1 °C 16.1 °C 1011.4 hPa East 7.2 km/h 12.2 km/h 48% 0.0 mm 163 W/m2
18:41 27.2 °C 15.9 °C 1011.7 hPa East 7.2 km/h 14.8 km/h 50% 0.0 mm 80 W/m2
18:46 26.8 °C 16.4 °C 1011.7 hPa East 7.2 km/h 14.8 km/h 53% 0.0 mm 147 W/m2
18:51 26.5 °C 16.2 °C 1011.7 hPa ENE 1.1 km/h 13.4 km/h 53% 0.0 mm 79 W/m2
18:56 26.9 °C 16.8 °C 1011.7 hPa East 3.5 km/h 11.1 km/h 54% 0.0 mm 129 W/m2
19:01 26.8 °C 16.4 °C 1012.1 hPa East 2.6 km/h 12.2 km/h 53% 0.0 mm 114 W/m2
19:06 27.1 °C 16.7 °C 1012.1 hPa East 2.6 km/h 12.2 km/h 53% 0.0 mm 113 W/m2
19:11 26.9 °C 16.8 °C 1012.1 hPa Calm   9.7 km/h 54% 0.0 mm 95 W/m2
19:16 27.1 °C 16.7 °C 1012.1 hPa Calm   9.7 km/h 53% 0.0 mm 76 W/m2
19:21 27.0 °C 16.9 °C 1012.1 hPa Calm   7.2 km/h 54% 0.0 mm 66 W/m2
19:26 26.6 °C 17.7 °C 1012.1 hPa Calm   5.0 km/h 58% 0.0 mm 56 W/m2
19:31 26.2 °C 17.8 °C 1012.1 hPa Calm   2.6 km/h 60% 0.0 mm 52 W/m2
19:36 26.1 °C 17.5 °C 1012.1 hPa Calm   2.6 km/h 59% 0.0 mm 42 W/m2
19:41 25.7 °C 18.2 °C 1012.1 hPa Calm   2.6 km/h 63% 0.0 mm 33 W/m2
19:46 24.8 °C 18.1 °C 1012.1 hPa Calm   1.1 km/h 66% 0.0 mm 24 W/m2
19:51 23.8 °C 17.8 °C 1012.1 hPa Calm   2.6 km/h 69% 0.0 mm 18 W/m2
19:56 22.9 °C 17.6 °C 1012.1 hPa Calm   3.5 km/h 72% 0.0 mm 13 W/m2
20:01 22.3 °C 17.4 °C 1012.4 hPa Calm   3.5 km/h 74% 0.0 mm 10 W/m2
20:06 21.9 °C 17.7 °C 1012.4 hPa Calm   3.5 km/h 77% 0.0 mm 7 W/m2
20:11 21.7 °C 17.7 °C 1012.4 hPa Calm   3.5 km/h 78% 0.0 mm 4 W/m2
20:16 21.4 °C 17.6 °C 1012.4 hPa Calm   2.6 km/h 79% 0.0 mm 3 W/m2
20:26 21.1 °C 17.6 °C 1012.8 hPa Calm   1.1 km/h 80% 0.0 mm 0 W/m2
20:31 21.1 °C 17.6 °C 1012.4 hPa Calm   1.1 km/h 80% 0.0 mm 0 W/m2
20:36 21.1 °C 17.6 °C 1012.4 hPa Calm   1.1 km/h 80% 0.0 mm 0 W/m2
20:41 21.1 °C 17.6 °C 1012.8 hPa Calm     80% 0.0 mm 0 W/m2
20:46 21.1 °C 17.7 °C 1012.8 hPa Calm     81% 0.0 mm 0 W/m2
20:51 21.1 °C 17.7 °C 1012.8 hPa SSW 2.6 km/h 7.2 km/h 81% 0.0 mm 0 W/m2
20:56 20.8 °C 17.6 °C 1012.8 hPa SW 5.0 km/h 14.8 km/h 82% 0.0 mm 0 W/m2
21:01 20.5 °C 17.6 °C 1013.1 hPa SW 7.2 km/h 14.8 km/h 83% 0.0 mm 0 W/m2
21:06 20.5 °C 17.6 °C 1012.8 hPa SW 6.1 km/h 11.1 km/h 83% 0.0 mm 0 W/m2
21:11 20.5 °C 17.7 °C 1013.1 hPa Calm   11.1 km/h 84% 0.0 mm 0 W/m2
21:16 20.5 °C 17.7 °C 1012.8 hPa Calm   8.7 km/h 84% 0.0 mm 0 W/m2
21:21 20.5 °C 17.7 °C 1013.1 hPa Calm   7.2 km/h 84% 0.0 mm 0 W/m2
21:26 20.5 °C 17.7 °C 1013.1 hPa Calm   7.2 km/h 84% 0.0 mm 0 W/m2
21:31 20.5 °C 17.7 °C 1013.4 hPa SSW 2.6 km/h 6.1 km/h 84% 0.0 mm 0 W/m2
21:36 20.5 °C 17.6 °C 1013.4 hPa SW 5.0 km/h 9.7 km/h 83% 0.0 mm 0 W/m2
21:41 20.7 °C 17.7 °C 1013.4 hPa SW 2.6 km/h 9.7 km/h 83% 0.0 mm 0 W/m2
21:46 20.7 °C 17.7 °C 1013.4 hPa Calm   9.7 km/h 83% 0.0 mm 0 W/m2
21:51 20.5 °C 17.6 °C 1013.4 hPa Calm   9.7 km/h 83% 0.0 mm 0 W/m2
21:57 20.5 °C 17.7 °C 1013.8 hPa Calm   2.6 km/h 84% 0.0 mm 0 W/m2
22:02 20.4 °C 17.8 °C 1013.8 hPa Calm   2.6 km/h 85% 0.0 mm 0 W/m2
22:07 20.3 °C 17.7 °C 1013.8 hPa Calm   5.0 km/h 85% 0.0 mm 0 W/m2
22:12 20.3 °C 17.9 °C 1013.8 hPa WSW 1.1 km/h 6.1 km/h 86% 0.0 mm 0 W/m2
22:17 20.4 °C 18.2 °C 1013.8 hPa Calm   7.2 km/h 87% 0.0 mm 0 W/m2
22:22 20.3 °C 18.1 °C 1013.8 hPa Calm   8.7 km/h 87% 0.0 mm 0 W/m2
22:27 20.3 °C 18.1 °C 1013.8 hPa Calm   8.7 km/h 87% 0.0 mm 0 W/m2
22:32 20.2 °C 18.0 °C 1013.8 hPa Calm     87% 0.0 mm 0 W/m2
22:37 20.1 °C 17.9 °C 1014.1 hPa Calm     87% 0.0 mm 0 W/m2
22:42 20.2 °C 18.0 °C 1014.1 hPa Calm     87% 0.0 mm 0 W/m2
22:47 20.2 °C 18.2 °C 1014.1 hPa Calm   1.1 km/h 88% 0.0 mm 0 W/m2
22:52 20.1 °C 18.1 °C 1014.1 hPa WSW 1.1 km/h 6.1 km/h 88% 0.0 mm 0 W/m2
22:57 20.1 °C 18.1 °C 1014.1 hPa SW 1.1 km/h 7.2 km/h 88% 0.0 mm 0 W/m2
23:02 20.1 °C 18.2 °C 1014.1 hPa SW 3.5 km/h 7.2 km/h 89% 0.0 mm 0 W/m2
23:07 20.2 °C 18.3 °C 1014.1 hPa SW 1.1 km/h 7.2 km/h 89% 0.0 mm 0 W/m2
23:12 20.1 °C 18.4 °C 1014.1 hPa Calm   7.2 km/h 90% 0.0 mm 0 W/m2
23:17 20.0 °C 18.3 °C 1014.1 hPa SW 2.6 km/h 5.0 km/h 90% 0.0 mm 0 W/m2
23:22 19.9 °C 18.4 °C 1014.4 hPa SW 1.1 km/h 5.0 km/h 91% 0.0 mm 0 W/m2
23:27 19.9 °C 18.6 °C 1014.4 hPa WSW 3.5 km/h 6.1 km/h 92% 0.0 mm 0 W/m2
23:32 19.9 °C 18.6 °C 1014.4 hPa WSW 2.6 km/h 6.1 km/h 92% 0.0 mm 0 W/m2
23:37 19.8 °C 18.5 °C 1014.4 hPa WSW 1.1 km/h 6.1 km/h 92% 0.0 mm 0 W/m2
23:42 19.8 °C 18.5 °C 1014.4 hPa Calm   6.1 km/h 92% 0.0 mm 0 W/m2
23:47 19.7 °C 18.4 °C 1014.1 hPa Calm   6.1 km/h 92% 0.0 mm 0 W/m2
23:52 19.6 °C 18.3 °C 1014.4 hPa Calm   2.6 km/h 92% 0.0 mm 0 W/m2
23:57 19.6 °C 18.3 °C 1014.4 hPa SW 1.1 km/h 3.5 km/h 92% 0.0 mm 0 W/m2
Northern Hawkes Bay. New Zealand Historic Data
Compliments of Weather Underground - 2 mb